»·PEaware :: N360BG KEUG-KTUS

N360BG :: KEUG-KTUS

FLIGHT INFORMATION

Flight Status: Arrived
Operator: Privately registered:
United States
More flights under this callsign
Pilot: Brandon G. (13)
Aircraft: Unknown
(EPIC)
More flights by this aircraft type
Origin: KEUG Mahlon Sweet
United States
Destination: KTUS Tucson Intl
United States
More flights between these airports :: More routes between these airports
Route: EUGEN9 LMT J92 BTY J92 PXR DINGO5
File this flight plan on PilotEdge
Remarks:
Altitude:
(Current/Filed)
29,000ft
Speed:
(Current/Filed)
325kts
Departed: 10-Jan-18 02:59 PM
Arrived: 10-Jan-18 05:11 PM
Distance/Time
Traveled:
922nm/2:12
Distance/Time
To Go:
Arrived

Flight Plot

Page will automatically refresh every two minutes.

Flight plan parsing failed; only flown route is shown


Map Options




Map Legend


Flown Route
Filed Route
Departure Airport
Arrival Airport
Navaid (VOR, NDB)
Fix

Horizontal Profiles

Position Reports

Time Latitude Longitude Heading Altitude Ground
Speed
10-Jan-18 14:34 44.115135 -123.215523 1 368ft 0kts
10-Jan-18 14:35 44.115135 -123.215523 1 368ft 0kts
10-Jan-18 14:36 44.115135 -123.215523 1 368ft 0kts
10-Jan-18 14:37 44.115135 -123.215523 1 368ft 0kts
10-Jan-18 14:38 44.115135 -123.215523 1 368ft 0kts
10-Jan-18 14:39 44.115135 -123.215523 1 368ft 0kts
10-Jan-18 14:40 44.115135 -123.215523 1 368ft 0kts
10-Jan-18 14:41 44.115135 -123.215523 1 368ft 0kts
10-Jan-18 14:42 44.115135 -123.215523 1 368ft 0kts
10-Jan-18 14:43 44.115135 -123.215523 1 368ft 0kts
10-Jan-18 14:44 44.115135 -123.215523 1 368ft 0kts
10-Jan-18 14:45 44.115135 -123.215523 1 368ft 0kts
10-Jan-18 14:46 44.115135 -123.215523 1 368ft 0kts
10-Jan-18 14:47 44.115135 -123.215523 1 368ft 0kts
10-Jan-18 14:48 44.115135 -123.215523 1 368ft 0kts
10-Jan-18 14:49 44.115135 -123.215523 1 368ft 0kts
10-Jan-18 14:50 44.115135 -123.215523 1 368ft 0kts
10-Jan-18 14:51 44.115135 -123.215523 1 368ft 0kts
10-Jan-18 14:52 44.115135 -123.215523 1 368ft 0kts
10-Jan-18 14:53 44.115135 -123.215523 1 368ft 0kts
10-Jan-18 14:54 44.115135 -123.215523 1 368ft 0kts
10-Jan-18 14:55 44.115136 -123.215523 1 368ft 0kts
10-Jan-18 14:56 44.115136 -123.215523 1 368ft 0kts
10-Jan-18 14:57 44.115523 -123.215671 308 368ft 6kts
10-Jan-18 14:58 44.115592 -123.216864 304 367ft 6kts
10-Jan-18 14:59 44.121730 -123.216960 358 365ft 21kts
10-Jan-18 15:00 44.126866 -123.217097 357 361ft 21kts
10-Jan-18 15:01 44.132397 -123.217183 0 357ft 16kts
10-Jan-18 15:02 44.135312 -123.217773 267 355ft 2kts
10-Jan-18 15:03 44.135312 -123.217777 266 355ft 0kts
10-Jan-18 15:04 44.134608 -123.219115 181 355ft 12kts
10-Jan-18 15:05 44.112200 -123.216970 176 947ft 171kts
10-Jan-18 15:06 44.068689 -123.214722 177 4194ft 154kts
10-Jan-18 15:07 44.027472 -123.205279 155 7172ft 170kts
10-Jan-18 15:08 43.985608 -123.170408 157 9670ft 191kts
10-Jan-18 15:09 43.939063 -123.132430 156 11880ft 213kts
10-Jan-18 15:10 43.890021 -123.092411 157 13895ft 226kts
10-Jan-18 15:11 43.835582 -123.048305 157 15372ft 257kts
10-Jan-18 15:12 43.777833 -123.001507 157 16637ft 267kts
10-Jan-18 15:13 43.714563 -122.950387 158 17883ft 276kts
10-Jan-18 15:14 43.651089 -122.892470 150 18995ft 288kts
10-Jan-18 15:15 43.587282 -122.827151 151 20359ft 298kts
10-Jan-18 15:16 43.521131 -122.759919 151 21692ft 311kts
10-Jan-18 15:17 43.452403 -122.690274 151 22865ft 321kts
10-Jan-18 15:18 43.382328 -122.619432 152 24241ft 317kts
10-Jan-18 15:19 43.313107 -122.549694 152 25625ft 315kts
10-Jan-18 15:20 43.243183 -122.479533 152 26667ft 327kts
10-Jan-18 15:21 43.171698 -122.407945 151 27785ft 338kts
10-Jan-18 15:22 43.098540 -122.334867 152 28957ft 348kts
10-Jan-18 15:23 43.019970 -122.256773 151 29168ft 382kts
10-Jan-18 15:24 42.935731 -122.173187 150 29139ft 404kts
10-Jan-18 15:25 42.852377 -122.090769 150 29093ft 414kts
10-Jan-18 15:26 42.761649 -122.001383 150 29095ft 417kts
10-Jan-18 15:27 42.675909 -121.917228 150 29097ft 419kts
10-Jan-18 15:28 42.584850 -121.828168 150 29101ft 421kts
10-Jan-18 15:29 42.493276 -121.738933 150 29104ft 422kts
10-Jan-18 15:30 42.401962 -121.650277 150 29107ft 423kts
10-Jan-18 15:31 42.309858 -121.561185 150 29111ft 424kts
10-Jan-18 15:32 42.217072 -121.471765 150 29114ft 425kts
10-Jan-18 15:33 42.123801 -121.382207 150 29117ft 425kts
10-Jan-18 15:34 42.033383 -121.295697 151 29102ft 424kts
10-Jan-18 15:35 41.940908 -121.207554 151 29105ft 423kts
10-Jan-18 15:36 41.854557 -121.125555 150 29095ft 422kts
10-Jan-18 15:37 41.763662 -121.039497 150 29105ft 420kts
10-Jan-18 15:38 41.672526 -120.953518 149 29114ft 420kts
10-Jan-18 15:39 41.580838 -120.867297 150 29119ft 421kts
10-Jan-18 15:40 41.489633 -120.781885 150 29122ft 421kts
10-Jan-18 15:41 41.397894 -120.696268 150 29125ft 422kts
10-Jan-18 15:42 41.306199 -120.610993 150 29128ft 423kts
10-Jan-18 15:43 41.218428 -120.529637 149 29131ft 424kts
10-Jan-18 15:44 41.126190 -120.444403 149 29134ft 425kts
10-Jan-18 15:45 41.033714 -120.359308 149 29138ft 425kts
10-Jan-18 15:46 40.942613 -120.275752 150 29123ft 423kts
10-Jan-18 15:47 40.854912 -120.195556 150 29103ft 421kts
10-Jan-18 15:48 40.762266 -120.111140 150 29102ft 419kts
10-Jan-18 15:49 40.670120 -120.027475 150 29105ft 419kts
10-Jan-18 15:50 40.578230 -119.944303 150 29108ft 419kts
10-Jan-18 15:51 40.485539 -119.860714 150 29111ft 420kts
10-Jan-18 15:52 40.392318 -119.776915 150 29129ft 420kts
10-Jan-18 15:53 40.299587 -119.693858 150 29154ft 421kts
10-Jan-18 15:54 40.205769 -119.610100 150 29157ft 422kts
10-Jan-18 15:55 40.113802 -119.528272 150 29160ft 423kts
10-Jan-18 15:56 40.020545 -119.445579 150 29160ft 424kts
10-Jan-18 15:57 39.929197 -119.364852 150 29154ft 424kts
10-Jan-18 15:58 39.849632 -119.294739 150 29092ft 423kts
10-Jan-18 15:59 39.758684 -119.214854 151 29080ft 420kts
10-Jan-18 16:00 39.667982 -119.135449 151 29084ft 419kts
10-Jan-18 16:01 39.578105 -119.057003 151 29088ft 419kts
10-Jan-18 16:02 39.486746 -118.977540 150 29091ft 419kts
10-Jan-18 16:03 39.396034 -118.898875 150 29094ft 420kts
10-Jan-18 16:04 39.304861 -118.820073 150 29097ft 420kts
10-Jan-18 16:05 39.213418 -118.741277 149 29100ft 421kts
10-Jan-18 16:06 39.121225 -118.662063 150 29103ft 422kts
10-Jan-18 16:07 39.027600 -118.581921 150 29106ft 423kts
10-Jan-18 16:08 38.932190 -118.500501 149 29104ft 424kts
10-Jan-18 16:09 38.841508 -118.423370 149 29083ft 423kts
10-Jan-18 16:10 38.747529 -118.343654 150 29079ft 422kts
10-Jan-18 16:11 38.651508 -118.262508 150 29073ft 419kts
10-Jan-18 16:12 38.555780 -118.181859 150 29077ft 419kts
10-Jan-18 16:13 38.461734 -118.102907 149 29098ft 417kts
10-Jan-18 16:14 36.984750 -116.894320 148 29112ft 417kts
10-Jan-18 16:15 36.898088 -116.825125 148 29073ft 417kts
10-Jan-18 16:16 36.805635 -116.744278 123 29025ft 409kts
10-Jan-18 16:17 36.749649 -116.624303 109 29008ft 401kts
10-Jan-18 16:18 36.698524 -116.502400 109 29010ft 400kts
10-Jan-18 16:19 36.647618 -116.380904 109 29012ft 400kts
10-Jan-18 16:20 36.598310 -116.263612 110 29003ft 400kts
10-Jan-18 16:21 36.547231 -116.142570 110 29005ft 400kts
10-Jan-18 16:22 36.495946 -116.021469 110 29008ft 400kts
10-Jan-18 16:23 36.444531 -115.900522 110 29010ft 400kts
10-Jan-18 16:24 36.393263 -115.780382 110 29013ft 401kts
10-Jan-18 16:25 36.341354 -115.659173 110 29015ft 402kts
10-Jan-18 16:26 36.285884 -115.530125 110 29003ft 403kts
10-Jan-18 16:27 36.226250 -115.391992 110 28993ft 404kts
10-Jan-18 16:28 36.183653 -115.293660 110 28983ft 403kts
10-Jan-18 16:29 36.137093 -115.186520 110 28989ft 402kts
10-Jan-18 16:30 36.010894 -114.897935 110 29007ft 404kts
10-Jan-18 16:31 35.723484 -114.347918 117 29020ft 411kts
10-Jan-18 16:32 35.502880 -113.935633 117 29035ft 412kts
10-Jan-18 16:33 35.445268 -113.828783 117 29039ft 414kts
10-Jan-18 16:34 35.383650 -113.714888 117 29042ft 415kts
10-Jan-18 16:35 35.321866 -113.601074 117 29045ft 416kts
10-Jan-18 16:36 35.259496 -113.486574 117 29047ft 417kts
10-Jan-18 16:37 35.196763 -113.371741 117 29051ft 418kts
10-Jan-18 16:38 35.136395 -113.261616 118 29040ft 417kts
10-Jan-18 16:39 35.073307 -113.148478 128 29020ft 421kts
10-Jan-18 16:40 34.979952 -113.077265 151 29046ft 420kts
10-Jan-18 16:41 34.894038 -113.014478 150 29040ft 417kts
10-Jan-18 16:42 34.815637 -112.957302 150 29029ft 413kts
10-Jan-18 16:43 34.730401 -112.895334 150 29032ft 412kts
10-Jan-18 16:44 34.639515 -112.829399 151 29034ft 413kts
10-Jan-18 16:45 34.547758 -112.763040 151 29038ft 414kts
10-Jan-18 16:46 34.454778 -112.695979 151 29040ft 416kts
10-Jan-18 16:47 34.362629 -112.629669 151 29043ft 416kts
10-Jan-18 16:48 34.268999 -112.562462 151 29046ft 417kts
10-Jan-18 16:49 34.174680 -112.494934 151 29046ft 418kts
10-Jan-18 16:50 34.079197 -112.426757 151 29043ft 419kts
10-Jan-18 16:51 33.984843 -112.359574 151 29046ft 419kts
10-Jan-18 16:52 33.895368 -112.296058 151 28378ft 433kts
10-Jan-18 16:53 33.795650 -112.225428 152 27362ft 439kts
10-Jan-18 16:54 33.699956 -112.157822 151 26411ft 439kts
10-Jan-18 16:55 33.600350 -112.087635 151 25434ft 437kts
10-Jan-18 16:56 33.500345 -112.017352 151 24265ft 438kts
10-Jan-18 16:57 33.397648 -111.968384 178 24032ft 404kts
10-Jan-18 16:58 33.313222 -111.956815 181 24035ft 394kts
10-Jan-18 16:59 33.189051 -111.942757 181 22847ft 412kts
10-Jan-18 17:00 33.078473 -111.930344 181 22045ft 405kts
10-Jan-18 17:01 32.990440 -111.920459 180 22042ft 393kts
10-Jan-18 17:02 32.874390 -111.900767 152 21862ft 404kts
10-Jan-18 17:03 32.798907 -111.836924 145 20420ft 426kts
10-Jan-18 17:04 32.708371 -111.762139 145 18505ft 412kts
10-Jan-18 17:05 32.607272 -111.678620 145 15580ft 387kts
10-Jan-18 17:06 32.541040 -111.619524 123 13439ft 361kts
10-Jan-18 17:07 32.490853 -111.528529 96 11943ft 307kts
10-Jan-18 17:08 32.437666 -111.453145 139 11954ft 347kts
10-Jan-18 17:09 32.364964 -111.381372 139 11722ft 355kts
10-Jan-18 17:10 32.295085 -111.311349 139 10781ft 344kts
10-Jan-18 17:11 32.229684 -111.244711 139 9852ft 326kts
10-Jan-18 17:12 32.166641 -111.179688 139 8909ft 317kts
10-Jan-18 17:13 32.106122 -111.116464 139 7922ft 315kts
10-Jan-18 17:14 32.056536 -111.046570 90 5894ft 283kts
10-Jan-18 17:15 32.058789 -110.963109 76 4243ft 230kts
10-Jan-18 17:16 32.086387 -110.913662 11 3307ft 119kts
10-Jan-18 17:17 32.106229 -110.927826 320 2633ft 28kts
10-Jan-18 17:18 32.107404 -110.927223 45 2634ft 0kts
10-Jan-18 17:19 32.107411 -110.927214 44 2634ft 2kts
10-Jan-18 17:20 32.109397 -110.928994 315 2628ft 16kts
10-Jan-18 17:21 32.112196 -110.932221 313 2620ft 14kts
10-Jan-18 17:22 32.115127 -110.935722 314 2610ft 15kts
10-Jan-18 17:23 32.118189 -110.939310 315 2599ft 15kts
10-Jan-18 17:24 32.121254 -110.942915 315 2587ft 16kts

Navigation Log

Ident Type
Flight plan parsing failed, navigation log unavailable